createdAt,value
2018-07-14T00:04:18.424Z,101379.00
2018-07-14T00:09:11.703Z,101381.00
2018-07-14T00:14:05.040Z,101378.00
2018-07-14T00:18:58.283Z,101376.00
2018-07-14T00:23:51.523Z,101375.00
2018-07-14T00:28:45.032Z,101380.00
2018-07-14T00:33:38.303Z,101379.00
2018-07-14T00:38:31.586Z,101384.00
2018-07-14T00:43:24.812Z,101384.00
2018-07-14T00:48:18.122Z,101387.00
2018-07-14T00:53:11.469Z,101390.00
2018-07-14T00:58:04.816Z,101386.00
2018-07-14T01:02:58.094Z,101385.00
2018-07-14T01:07:51.596Z,101389.00
2018-07-14T01:12:45.545Z,101394.00
2018-07-14T01:17:38.666Z,101397.00
2018-07-14T01:22:31.956Z,101398.00
2018-07-14T01:27:25.195Z,101398.00
2018-07-14T01:32:18.476Z,101396.00
2018-07-14T01:37:11.727Z,101395.00
2018-07-14T01:42:04.955Z,101397.00
2018-07-14T01:46:58.196Z,101393.00
2018-07-14T01:51:51.872Z,101391.00
2018-07-14T01:56:45.123Z,101396.00
2018-07-14T02:01:38.337Z,101405.00
2018-07-14T02:06:31.584Z,101406.00
2018-07-14T02:11:24.909Z,101406.00
2018-07-14T02:16:18.175Z,101407.00
2018-07-14T02:21:11.439Z,101411.00
2018-07-14T02:26:04.695Z,101414.00
2018-07-14T02:30:57.945Z,101416.00
2018-07-14T02:35:51.178Z,101419.00
2018-07-14T02:40:44.435Z,101425.00
2018-07-14T02:45:37.670Z,101423.00
2018-07-14T02:50:30.811Z,101421.00
2018-07-14T02:55:24.048Z,101417.00
2018-07-14T03:00:17.335Z,101415.00
2018-07-14T03:05:10.598Z,101425.00
2018-07-14T03:10:03.849Z,101425.00
2018-07-14T03:14:57.096Z,101417.00
2018-07-14T03:19:50.662Z,101412.00
2018-07-14T03:24:43.959Z,101412.00
2018-07-14T03:29:37.214Z,101414.00
2018-07-14T03:34:30.447Z,101414.00
2018-07-14T03:39:23.668Z,101418.00
2018-07-14T03:44:16.999Z,101416.00
2018-07-14T03:49:10.235Z,101412.00
2018-07-14T03:54:03.756Z,101414.00
2018-07-14T03:58:56.988Z,101418.00
2018-07-14T04:03:50.314Z,101414.00
2018-07-14T04:08:43.566Z,101416.00
2018-07-14T04:13:36.811Z,101419.00
2018-07-14T04:18:30.039Z,101420.00
2018-07-14T04:23:23.358Z,101413.00
2018-07-14T04:28:16.609Z,101413.00
2018-07-14T04:33:09.822Z,101412.00
2018-07-14T04:38:02.923Z,101421.00
2018-07-14T04:42:56.167Z,101430.00
2018-07-14T04:47:49.284Z,101436.00
2018-07-14T04:52:42.538Z,101438.00
2018-07-14T04:57:35.808Z,101424.00
2018-07-14T05:02:29.085Z,101429.00
2018-07-14T05:07:22.626Z,101432.00
2018-07-14T05:12:15.866Z,101434.00
2018-07-14T05:17:09.279Z,101432.00
2018-07-14T05:22:03.486Z,101430.00
2018-07-14T05:26:56.987Z,101427.00
2018-07-14T05:31:50.257Z,101417.00
2018-07-14T05:36:43.548Z,101425.00
2018-07-14T05:41:37.598Z,101423.00
2018-07-14T05:46:32.051Z,101429.00
2018-07-14T05:51:25.295Z,101434.00
2018-07-14T05:56:18.434Z,101432.00
2018-07-14T06:01:11.964Z,101430.00
2018-07-14T06:06:05.635Z,101435.00
2018-07-14T06:10:58.863Z,101443.00
2018-07-14T06:15:52.103Z,101439.00
2018-07-14T06:20:45.396Z,101426.00
2018-07-14T06:25:38.734Z,101439.00
2018-07-14T06:30:32.710Z,101423.00
2018-07-14T06:35:25.929Z,101424.00
2018-07-14T06:40:19.171Z,101444.00
2018-07-14T06:45:12.303Z,101436.00
2018-07-14T06:50:05.831Z,101438.00
2018-07-14T06:54:59.027Z,101441.00
2018-07-14T06:59:52.339Z,101443.00
2018-07-14T07:04:45.624Z,101435.00
2018-07-14T07:09:38.856Z,101430.00
2018-07-14T07:14:32.566Z,101436.00
2018-07-14T07:19:25.788Z,101441.00
2018-07-14T07:24:19.017Z,101440.00
2018-07-14T07:29:12.262Z,101442.00
2018-07-14T07:34:05.953Z,101440.00
2018-07-14T07:38:59.259Z,101449.00
2018-07-14T07:43:52.667Z,101441.00
2018-07-14T07:48:46.161Z,101444.00
2018-07-14T07:53:39.360Z,101442.00
2018-07-14T07:58:32.579Z,101437.00
2018-07-14T08:03:25.786Z,101442.00
2018-07-14T08:08:19.005Z,101442.00
2018-07-14T08:13:12.242Z,101439.00
2018-07-14T08:18:05.526Z,101439.00
2018-07-14T08:22:58.834Z,101434.00
2018-07-14T08:27:52.008Z,101437.00
2018-07-14T08:32:45.249Z,101431.00
2018-07-14T08:37:38.467Z,101427.00
2018-07-14T08:42:31.745Z,101436.00
2018-07-14T08:47:24.985Z,101429.00
2018-07-14T08:52:18.236Z,101423.00
2018-07-14T08:57:11.468Z,101420.00
2018-07-14T09:02:04.777Z,101420.00
2018-07-14T09:06:57.995Z,101422.00
2018-07-14T09:11:51.485Z,101411.00
2018-07-14T09:16:44.754Z,101408.00
2018-07-14T09:21:37.973Z,101409.00
2018-07-14T09:26:31.249Z,101402.00
2018-07-14T09:31:24.558Z,101407.00
2018-07-14T09:36:17.808Z,101398.00
2018-07-14T09:41:11.057Z,101397.00
2018-07-14T09:46:04.167Z,101397.00
2018-07-14T09:50:57.458Z,101395.00
2018-07-14T09:55:50.720Z,101379.00
2018-07-14T10:00:49.591Z,101384.00
2018-07-14T10:05:43.344Z,101382.00
2018-07-14T10:10:36.694Z,101378.00
2018-07-14T10:15:29.915Z,101369.00
2018-07-14T10:20:23.179Z,101366.00
2018-07-14T10:25:16.565Z,101373.00
2018-07-14T10:30:09.679Z,101375.00
2018-07-14T10:35:02.968Z,101368.00
2018-07-14T10:39:56.231Z,101365.00
2018-07-14T10:44:49.470Z,101361.00
2018-07-14T10:49:42.670Z,101357.00
2018-07-14T10:54:35.929Z,101364.00
2018-07-14T10:59:29.426Z,101348.00
2018-07-14T11:04:22.736Z,101344.00
2018-07-14T11:09:15.932Z,101334.00
2018-07-14T11:14:09.207Z,101327.00
2018-07-14T11:19:02.404Z,101330.00
2018-07-14T11:23:55.637Z,101324.00
2018-07-14T11:28:49.155Z,101326.00
2018-07-14T11:33:42.282Z,101325.00
2018-07-14T11:38:35.803Z,101319.00
2018-07-14T11:43:28.942Z,101319.00
2018-07-14T11:48:22.277Z,101313.00
2018-07-14T11:53:15.677Z,101312.00
2018-07-14T11:58:08.929Z,101308.00
2018-07-14T12:03:02.207Z,101305.00
2018-07-14T12:07:55.477Z,101297.00
2018-07-14T12:12:48.765Z,101291.00
2018-07-14T12:17:42.007Z,101296.00
2018-07-14T12:22:35.202Z,101291.00
2018-07-14T12:27:28.453Z,101293.00
2018-07-14T12:32:21.630Z,101293.00
2018-07-14T12:37:14.762Z,101286.00
2018-07-14T12:42:08.057Z,101277.00
2018-07-14T12:47:01.367Z,101275.00
2018-07-14T12:51:54.633Z,101268.00
2018-07-14T12:56:47.754Z,101267.00
2018-07-14T13:01:40.995Z,101251.00
2018-07-14T13:06:34.339Z,101239.00
2018-07-14T13:11:27.549Z,101244.00
2018-07-14T13:16:20.804Z,101243.00
2018-07-14T13:21:14.165Z,101244.00
2018-07-14T13:26:07.439Z,101241.00
2018-07-14T13:31:00.705Z,101241.00
2018-07-14T13:35:54.072Z,101245.00
2018-07-14T13:40:47.325Z,101237.00
2018-07-14T13:45:40.618Z,101221.00
2018-07-14T13:50:34.863Z,101219.00
2018-07-14T13:55:28.139Z,101221.00
2018-07-14T14:00:21.300Z,101206.00
2018-07-14T14:05:14.404Z,101207.00
2018-07-14T14:10:07.710Z,101208.00
2018-07-14T14:15:00.935Z,101204.00
2018-07-14T14:19:54.264Z,101202.00
2018-07-14T14:24:47.521Z,101199.00
2018-07-14T14:29:40.737Z,101196.00
2018-07-14T14:34:34.008Z,101190.00
2018-07-14T14:39:27.724Z,101186.00
2018-07-14T14:44:21.019Z,101182.00
2018-07-14T14:49:14.253Z,101191.00
2018-07-14T14:54:07.446Z,101185.00
2018-07-14T14:59:00.660Z,101179.00
2018-07-14T15:03:53.894Z,101180.00
2018-07-14T15:08:47.134Z,101187.00
2018-07-14T15:13:40.408Z,101172.00
2018-07-14T15:18:33.692Z,101164.00
2018-07-14T15:23:26.969Z,101164.00
2018-07-14T15:28:20.110Z,101166.00
2018-07-14T15:33:13.444Z,101170.00
2018-07-14T15:38:06.606Z,101168.00
2018-07-14T15:42:59.898Z,101166.00
2018-07-14T15:47:53.113Z,101163.00
2018-07-14T15:52:46.389Z,101169.00
2018-07-14T15:57:40.345Z,101163.00
2018-07-14T16:02:33.556Z,101158.00
2018-07-14T16:07:26.799Z,101162.00
2018-07-14T16:12:20.053Z,101161.00
2018-07-14T16:17:13.261Z,101160.00
2018-07-14T16:22:06.909Z,101159.00
2018-07-14T16:27:00.151Z,101159.00
2018-07-14T16:31:53.382Z,101156.00
2018-07-14T16:36:46.608Z,101154.00
2018-07-14T16:41:40.201Z,101153.00
2018-07-14T16:46:33.533Z,101141.00
2018-07-14T16:51:26.738Z,101146.00
2018-07-14T16:56:19.955Z,101146.00
2018-07-14T17:01:13.271Z,101142.00
2018-07-14T17:06:06.533Z,101145.00
2018-07-14T17:11:00.714Z,101144.00
2018-07-14T17:15:53.955Z,101138.00
2018-07-14T17:20:47.325Z,101135.00
2018-07-14T17:25:40.702Z,101133.00
2018-07-14T17:30:33.899Z,101127.00
2018-07-14T17:35:27.131Z,101134.00
2018-07-14T17:40:20.671Z,101128.00
2018-07-14T17:45:13.973Z,101124.00
2018-07-14T17:50:07.300Z,101125.00
2018-07-14T17:55:00.603Z,101128.00
2018-07-14T17:59:53.884Z,101129.00
2018-07-14T18:04:47.093Z,101125.00
2018-07-14T18:09:40.347Z,101133.00
2018-07-14T18:14:33.592Z,101136.00
2018-07-14T18:19:26.822Z,101126.00
2018-07-14T18:24:20.075Z,101136.00
2018-07-14T18:29:13.339Z,101135.00
2018-07-14T18:34:06.611Z,101136.00
2018-07-14T18:38:59.950Z,101131.00
2018-07-14T18:43:53.176Z,101136.00
2018-07-14T18:48:46.331Z,101141.00
2018-07-14T18:53:40.196Z,101144.00
2018-07-14T18:58:33.483Z,101141.00
2018-07-14T19:03:27.043Z,101137.00
2018-07-14T19:08:20.522Z,101146.00
2018-07-14T19:13:13.731Z,101142.00
2018-07-14T19:18:06.929Z,101142.00
2018-07-14T19:23:00.180Z,101147.00
2018-07-14T19:27:53.423Z,101150.00
2018-07-14T19:32:46.631Z,101161.00
2018-07-14T19:37:39.873Z,101166.00
2018-07-14T19:42:33.072Z,101167.00
2018-07-14T19:47:26.276Z,101172.00
2018-07-14T19:52:19.560Z,101181.00
2018-07-14T19:57:12.698Z,101187.00
2018-07-14T20:02:06.216Z,101186.00
2018-07-14T20:06:59.448Z,101187.00
2018-07-14T20:11:52.669Z,101198.00
2018-07-14T20:16:45.923Z,101195.00
2018-07-14T20:21:39.168Z,101203.00
2018-07-14T20:26:32.401Z,101204.00
2018-07-14T20:31:25.628Z,101213.00
2018-07-14T20:36:18.849Z,101209.00
2018-07-14T20:41:12.091Z,101209.00
2018-07-14T20:46:05.391Z,101212.00
2018-07-14T20:50:58.642Z,101219.00
2018-07-14T20:55:51.894Z,101215.00
2018-07-14T21:00:45.136Z,101220.00
2018-07-14T21:05:38.415Z,101222.00
2018-07-14T21:10:31.660Z,101225.00
2018-07-14T21:15:24.897Z,101226.00
2018-07-14T21:20:18.172Z,101226.00
2018-07-14T21:25:11.455Z,101223.00
2018-07-14T21:30:04.828Z,101235.00
2018-07-14T21:34:58.040Z,101231.00
2018-07-14T21:39:51.257Z,101231.00
2018-07-14T21:44:44.677Z,101232.00
2018-07-14T21:49:37.885Z,101235.00
2018-07-14T21:54:31.107Z,101235.00
2018-07-14T21:59:24.329Z,101237.00
2018-07-14T22:04:17.658Z,101241.00
2018-07-14T22:09:11.211Z,101243.00
2018-07-14T22:14:04.754Z,101239.00
2018-07-14T22:18:58.026Z,101242.00
2018-07-14T22:23:51.338Z,101241.00
2018-07-14T22:28:44.619Z,101241.00
2018-07-14T22:33:37.859Z,101240.00
2018-07-14T22:38:31.095Z,101238.00
2018-07-14T22:43:24.309Z,101239.00
2018-07-14T22:48:17.615Z,101242.00
2018-07-14T22:53:10.802Z,101236.00
2018-07-14T22:58:04.140Z,101236.00
2018-07-14T23:02:57.381Z,101232.00
2018-07-14T23:07:50.498Z,101232.00
2018-07-14T23:12:43.720Z,101231.00
2018-07-14T23:17:36.966Z,101237.00
2018-07-14T23:22:30.217Z,101239.00
2018-07-14T23:27:23.994Z,101233.00
2018-07-14T23:32:17.277Z,101230.00
2018-07-14T23:37:10.508Z,101228.00
2018-07-14T23:42:03.790Z,101231.00
2018-07-14T23:46:56.948Z,101228.00
2018-07-14T23:51:50.192Z,101231.00
2018-07-14T23:56:43.475Z,101235.00
